Vallonia, Indiana
Current Conditions -  °F | °C
As of 10:55 AM on Sunday 23 Nov 2014 (Local Time) from KBAK Reporting Station
Overcast Overcast  
Wind Chill: 55°   Ceiling: 6000
Heat Index: 55°   Visibility: 10mi
Dew Point: 45°   Wind: 12mph
Humidity: 67%   Direction: 160°SSE
Pressure: 29.85"   Gusts: NA
Location:  38.85°N, 86.1°W
Report Text: KBAK 231555Z 16010KT 10SM SCT035 SCT049 OVC060 13/07 A2985
Loading
Personal Weather Stations






























Interactive Weather Map New forecast layout! Learn more

10-Day Weather Forecast

Advertisements
Track Severe Weather on mobile